createdAt,value
2018-04-14T00:00:17.225Z,11.76
2018-04-14T00:01:16.910Z,11.76
2018-04-14T00:02:16.892Z,11.67
2018-04-14T00:03:16.885Z,11.64
2018-04-14T00:04:16.910Z,11.73
2018-04-14T00:05:16.915Z,11.67
2018-04-14T00:06:16.832Z,11.66
2018-04-14T00:07:17.114Z,11.66
2018-04-14T00:08:16.796Z,11.54
2018-04-14T00:09:16.781Z,11.59
2018-04-14T00:10:16.913Z,11.59
2018-04-14T00:11:16.779Z,11.52
2018-04-14T00:12:16.733Z,11.52
2018-04-14T00:13:17.016Z,11.43
2018-04-14T00:14:16.752Z,11.45
2018-04-14T00:15:16.687Z,11.43
2018-04-14T00:16:16.716Z,11.43
2018-04-14T00:17:16.650Z,11.45
2018-04-14T00:18:16.633Z,11.34
2018-04-14T00:19:16.621Z,11.40
2018-04-14T00:20:16.902Z,11.45
2018-04-14T00:21:16.586Z,11.38
2018-04-14T00:22:16.620Z,11.33
2018-04-14T00:23:16.551Z,11.40
2018-04-14T00:24:16.541Z,11.40
2018-04-14T00:25:16.520Z,11.30
2018-04-14T00:26:16.529Z,11.41
2018-04-14T00:27:16.788Z,11.33
2018-04-14T00:28:16.528Z,11.45
2018-04-14T00:30:16.452Z,11.36
2018-04-14T00:31:16.423Z,11.37
2018-04-14T00:32:16.410Z,11.33
2018-04-14T00:33:16.389Z,11.37
2018-04-14T00:34:16.728Z,11.37
2018-04-14T00:35:16.360Z,11.31
2018-04-14T00:36:16.343Z,11.38
2018-04-14T00:37:16.327Z,11.43
2018-04-14T00:38:16.315Z,11.33
2018-04-14T00:39:16.291Z,11.34
2018-04-14T00:40:16.332Z,11.38
2018-04-14T00:41:16.568Z,11.38
2018-04-14T00:42:16.244Z,11.34
2018-04-14T00:43:16.227Z,11.38
2018-04-14T00:44:16.211Z,11.37
2018-04-14T00:45:16.192Z,11.36
2018-04-14T00:46:16.227Z,11.36
2018-04-14T00:47:16.177Z,11.28
2018-04-14T00:48:16.446Z,11.28
2018-04-14T00:49:16.128Z,11.30
2018-04-14T00:50:16.115Z,11.33
2018-04-14T00:51:16.261Z,11.30
2018-04-14T00:52:16.088Z,11.25
2018-04-14T00:53:16.062Z,11.27
2018-04-14T00:54:16.351Z,11.30
2018-04-14T00:55:16.037Z,11.28
2018-04-14T00:56:16.019Z,11.38
2018-04-14T00:57:16.054Z,11.30
2018-04-14T00:58:15.985Z,11.30
2018-04-14T00:59:15.965Z,11.27
2018-04-14T01:00:16.249Z,11.33
2018-04-14T01:01:15.934Z,11.36
2018-04-14T01:03:15.952Z,11.30
2018-04-14T01:04:15.932Z,11.33
2018-04-14T01:05:15.867Z,11.27
2018-04-14T01:06:16.157Z,11.33
2018-04-14T01:08:15.825Z,11.30
2018-04-14T01:09:15.800Z,11.31
2018-04-14T01:10:16.145Z,11.18
2018-04-14T01:12:16.053Z,11.31
2018-04-14T01:13:15.740Z,11.31
2018-04-14T01:14:15.721Z,11.33
2018-04-14T01:15:15.703Z,11.23
2018-04-14T01:16:15.738Z,11.19
2018-04-14T01:17:15.675Z,11.28
2018-04-14T01:18:15.953Z,11.25
2018-04-14T01:19:15.651Z,11.27
2018-04-14T01:20:15.625Z,11.27
2018-04-14T01:21:15.607Z,11.20
2018-04-14T01:22:15.787Z,11.28
2018-04-14T01:23:15.570Z,11.25
2018-04-14T01:24:15.862Z,11.22
2018-04-14T01:25:15.540Z,11.30
2018-04-14T01:26:15.531Z,11.22
2018-04-14T01:28:15.545Z,11.19
2018-04-14T01:29:15.473Z,11.18
2018-04-14T01:30:15.766Z,11.19
2018-04-14T01:31:15.442Z,11.22
2018-04-14T01:32:15.426Z,11.22
2018-04-14T01:33:15.411Z,11.19
2018-04-14T01:34:15.441Z,11.18
2018-04-14T01:35:15.375Z,11.23
2018-04-14T01:36:15.360Z,11.15
2018-04-14T01:37:15.654Z,11.22
2018-04-14T01:38:15.324Z,11.20
2018-04-14T01:39:15.309Z,11.15
2018-04-14T01:40:15.391Z,11.20
2018-04-14T01:41:15.275Z,11.16
2018-04-14T01:42:15.257Z,11.15
2018-04-14T01:44:15.525Z,11.16
2018-04-14T01:45:15.206Z,11.11
2018-04-14T01:46:15.292Z,11.08
2018-04-14T01:47:15.177Z,11.09
2018-04-14T01:48:15.160Z,11.18
2018-04-14T01:49:15.146Z,11.13
2018-04-14T01:50:15.228Z,11.12
2018-04-14T01:51:15.414Z,11.12
2018-04-14T01:52:15.207Z,11.13
2018-04-14T01:53:16.287Z,11.15
2018-04-14T01:54:15.363Z,11.11
2018-04-14T01:55:15.044Z,11.15
2018-04-14T01:57:15.225Z,11.09
2018-04-14T01:58:15.341Z,11.12
2018-04-14T01:59:14.986Z,11.12
2018-04-14T02:00:14.964Z,11.11
2018-04-14T02:01:14.948Z,11.13
2018-04-14T02:02:14.924Z,11.15
2018-04-14T02:03:14.910Z,11.16
2018-04-14T02:04:14.941Z,11.16
2018-04-14T02:05:15.275Z,11.08
2018-04-14T02:06:15.159Z,11.08
2018-04-14T02:08:14.904Z,11.08
2018-04-14T02:09:14.817Z,11.08
2018-04-14T02:10:14.846Z,11.09
2018-04-14T02:11:14.774Z,11.04
2018-04-14T02:12:15.061Z,11.15
2018-04-14T02:13:14.748Z,11.08
2018-04-14T02:14:14.729Z,10.98
2018-04-14T02:15:14.708Z,11.03
2018-04-14T02:16:14.793Z,10.98
2018-04-14T02:17:14.681Z,11.00
2018-04-14T02:18:14.660Z,11.01
2018-04-14T02:19:14.951Z,11.00
2018-04-14T02:20:14.631Z,10.97
2018-04-14T02:21:14.611Z,10.97
2018-04-14T02:22:14.648Z,11.00
2018-04-14T02:23:14.583Z,10.93
2018-04-14T02:24:14.559Z,10.85
2018-04-14T02:25:14.893Z,10.97
2018-04-14T02:26:14.528Z,10.91
2018-04-14T02:27:14.528Z,10.95
2018-04-14T02:28:14.645Z,11.00
2018-04-14T02:29:14.476Z,11.01
2018-04-14T02:30:14.466Z,10.91
2018-04-14T02:31:14.777Z,10.95
2018-04-14T02:32:14.433Z,10.87
2018-04-14T02:33:14.413Z,10.97
2018-04-14T02:34:14.440Z,10.94
2018-04-14T02:36:14.360Z,10.90
2018-04-14T02:37:14.346Z,10.93
2018-04-14T02:38:14.621Z,10.90
2018-04-14T02:39:14.306Z,10.85
2018-04-14T02:40:14.337Z,10.85
2018-04-14T02:41:14.272Z,10.87
2018-04-14T02:42:14.258Z,10.90
2018-04-14T02:44:14.538Z,10.90
2018-04-14T02:45:14.204Z,10.90
2018-04-14T02:46:14.241Z,10.86
2018-04-14T02:48:14.522Z,10.86
2018-04-14T02:49:14.154Z,10.82
2018-04-14T02:50:14.425Z,10.76
2018-04-14T02:51:14.116Z,10.85
2018-04-14T02:52:14.297Z,10.79
2018-04-14T02:53:14.073Z,10.83
2018-04-14T02:54:14.501Z,10.85
2018-04-14T02:55:14.040Z,10.75
2018-04-14T02:56:14.316Z,10.73
2018-04-14T02:57:14.001Z,10.72
2018-04-14T03:00:13.999Z,10.76
2018-04-14T03:02:14.251Z,10.76
2018-04-14T03:03:13.897Z,10.79
2018-04-14T03:04:13.892Z,10.79
2018-04-14T03:05:13.971Z,10.78
2018-04-14T03:06:13.898Z,10.72
2018-04-14T03:07:13.830Z,10.83
2018-04-14T03:08:13.810Z,10.70
2018-04-14T03:09:14.106Z,10.82
2018-04-14T03:10:13.831Z,10.72
2018-04-14T03:11:13.765Z,10.80
2018-04-14T03:12:13.797Z,10.76
2018-04-14T03:13:13.729Z,10.70
2018-04-14T03:14:13.710Z,10.75
2018-04-14T03:15:13.694Z,10.72
2018-04-14T03:16:13.987Z,10.72
2018-04-14T03:17:13.664Z,10.75
2018-04-14T03:18:13.694Z,10.65
2018-04-14T03:19:13.674Z,10.72
2018-04-14T03:20:13.607Z,10.64
2018-04-14T03:21:13.591Z,10.70
2018-04-14T03:22:13.577Z,10.65
2018-04-14T03:23:13.855Z,10.72
2018-04-14T03:24:13.545Z,10.67
2018-04-14T03:25:13.571Z,10.68
2018-04-14T03:26:13.508Z,10.67
2018-04-14T03:27:13.489Z,10.67
2018-04-14T03:28:13.469Z,10.67
2018-04-14T03:29:13.455Z,10.68
2018-04-14T03:30:13.739Z,10.64
2018-04-14T03:31:13.594Z,10.72
2018-04-14T03:32:13.405Z,10.62
2018-04-14T03:33:13.386Z,10.67
2018-04-14T03:34:13.367Z,10.70
2018-04-14T03:35:13.350Z,10.72
2018-04-14T03:36:13.339Z,10.73
2018-04-14T03:37:13.673Z,10.73
2018-04-14T03:38:13.306Z,10.70
2018-04-14T03:39:13.284Z,10.61
2018-04-14T03:40:13.272Z,10.68
2018-04-14T03:41:13.248Z,10.61
2018-04-14T03:42:13.232Z,10.61
2018-04-14T03:43:13.261Z,10.60
2018-04-14T03:44:13.506Z,10.61
2018-04-14T03:45:13.185Z,10.54
2018-04-14T03:46:13.511Z,10.62
2018-04-14T03:47:13.140Z,10.64
2018-04-14T03:48:13.126Z,10.52
2018-04-14T03:49:13.106Z,10.58
2018-04-14T03:50:13.098Z,10.58
2018-04-14T03:51:13.382Z,10.58
2018-04-14T03:52:13.109Z,10.61
2018-04-14T03:53:13.045Z,10.57
2018-04-14T03:54:13.073Z,10.68
2018-04-14T03:55:13.019Z,10.62
2018-04-14T03:56:12.984Z,10.64
2018-04-14T03:57:13.272Z,10.72
2018-04-14T03:58:13.112Z,10.65
2018-04-14T03:59:12.937Z,10.70
2018-04-14T04:00:12.935Z,10.75
2018-04-14T04:01:12.907Z,10.68
2018-04-14T04:02:12.891Z,10.73
2018-04-14T04:03:13.169Z,10.67
2018-04-14T04:04:12.902Z,10.68
2018-04-14T04:05:12.892Z,10.68
2018-04-14T04:06:12.820Z,10.75
2018-04-14T04:07:12.820Z,10.72
2018-04-14T04:08:12.788Z,10.61
2018-04-14T04:09:13.064Z,10.64
2018-04-14T04:11:12.778Z,10.61
2018-04-14T04:12:12.715Z,10.67
2018-04-14T04:13:12.695Z,10.62
2018-04-14T04:14:12.701Z,10.68
2018-04-14T04:15:12.961Z,10.68
2018-04-14T04:16:12.643Z,10.61
2018-04-14T04:17:12.776Z,10.60
2018-04-14T04:18:12.606Z,10.61
2018-04-14T04:19:12.641Z,10.62
2018-04-14T04:21:12.882Z,10.55
2018-04-14T04:22:12.542Z,10.57
2018-04-14T04:23:12.676Z,10.55
2018-04-14T04:24:12.504Z,10.57
2018-04-14T04:25:12.486Z,10.52
2018-04-14T04:26:12.470Z,10.55
2018-04-14T04:27:12.750Z,10.52
2018-04-14T04:28:12.495Z,10.54
2018-04-14T04:29:12.477Z,10.48
2018-04-14T04:30:12.417Z,10.60
2018-04-14T04:33:12.653Z,10.58
2018-04-14T04:34:12.330Z,10.54
2018-04-14T04:35:12.371Z,10.48
2018-04-14T04:36:12.347Z,10.52
2018-04-14T04:37:12.295Z,10.49
2018-04-14T04:38:12.264Z,10.46
2018-04-14T04:39:12.265Z,10.49
2018-04-14T04:40:12.529Z,10.46
2018-04-14T04:42:12.248Z,10.52
2018-04-14T04:43:12.175Z,10.41
2018-04-14T04:44:12.163Z,10.49
2018-04-14T04:45:12.145Z,10.46
2018-04-14T04:46:12.139Z,10.52
2018-04-14T04:47:12.420Z,10.49
2018-04-14T04:48:12.143Z,10.45
2018-04-14T04:49:12.073Z,10.52
2018-04-14T04:50:12.056Z,10.48
2018-04-14T04:52:12.181Z,10.52
2018-04-14T04:53:12.006Z,10.46
2018-04-14T04:54:12.335Z,10.52
2018-04-14T04:55:11.970Z,10.43
2018-04-14T04:56:12.190Z,10.45
2018-04-14T04:57:11.941Z,10.46
2018-04-14T04:58:11.922Z,10.46
2018-04-14T04:59:11.905Z,10.45
2018-04-14T05:00:11.940Z,10.45
2018-04-14T05:01:12.467Z,10.48
2018-04-14T05:02:11.849Z,10.48
2018-04-14T05:03:11.937Z,10.38
2018-04-14T05:05:11.800Z,10.42
2018-04-14T05:06:11.781Z,10.49
2018-04-14T05:07:11.821Z,10.46
2018-04-14T05:08:12.049Z,10.57
2018-04-14T05:10:11.711Z,10.52
2018-04-14T05:11:11.696Z,10.49
2018-04-14T05:12:11.726Z,10.54
2018-04-14T05:13:11.662Z,10.52
2018-04-14T05:14:11.643Z,10.55
2018-04-14T05:15:12.012Z,10.49
2018-04-14T05:16:11.615Z,10.58
2018-04-14T05:17:11.593Z,10.46
2018-04-14T05:18:11.628Z,10.54
2018-04-14T05:19:11.556Z,10.54
2018-04-14T05:20:11.550Z,10.45
2018-04-14T05:21:11.827Z,10.49
2018-04-14T05:22:11.506Z,10.43
2018-04-14T05:23:11.541Z,10.39
2018-04-14T05:24:11.499Z,10.46
2018-04-14T05:25:11.458Z,10.52
2018-04-14T05:26:11.442Z,10.57
2018-04-14T05:27:11.723Z,10.43
2018-04-14T05:28:11.505Z,10.54
2018-04-14T05:29:11.501Z,10.49
2018-04-14T05:30:11.370Z,10.39
2018-04-14T05:31:11.353Z,10.48
2018-04-14T05:32:11.338Z,10.46
2018-04-14T05:33:11.616Z,10.43
2018-04-14T05:34:11.306Z,10.46
2018-04-14T05:35:11.335Z,10.48
2018-04-14T05:37:11.548Z,10.42
2018-04-14T05:38:11.253Z,10.43
2018-04-14T05:39:11.516Z,10.35
2018-04-14T05:40:11.198Z,10.42
2018-04-14T05:41:11.555Z,10.41
2018-04-14T05:42:11.268Z,10.43
2018-04-14T05:43:11.154Z,10.35
2018-04-14T05:44:11.134Z,10.35
2018-04-14T05:45:11.418Z,10.38
2018-04-14T05:46:11.099Z,10.36
2018-04-14T05:47:11.133Z,10.42
2018-04-14T05:48:11.077Z,10.34
2018-04-14T05:49:11.048Z,10.38
2018-04-14T05:51:11.336Z,10.42
2018-04-14T05:52:10.992Z,10.36
2018-04-14T05:53:11.025Z,10.31
2018-04-14T05:55:10.943Z,10.27
2018-04-14T05:56:10.924Z,10.31
2018-04-14T05:57:12.390Z,10.36
2018-04-14T05:59:10.947Z,10.35
2018-04-14T06:00:10.897Z,10.26
2018-04-14T06:01:10.904Z,10.31
2018-04-14T06:02:10.977Z,10.23
2018-04-14T06:03:10.803Z,10.30
2018-04-14T06:05:11.179Z,10.34
2018-04-14T06:06:10.757Z,10.23
2018-04-14T06:08:10.719Z,10.20
2018-04-14T06:09:10.765Z,10.27
2018-04-14T06:10:10.785Z,10.27
2018-04-14T06:11:10.722Z,10.31
2018-04-14T06:12:11.015Z,10.27
2018-04-14T06:13:10.687Z,10.23
2018-04-14T06:14:10.631Z,10.21
2018-04-14T06:15:10.599Z,10.27
2018-04-14T06:16:10.587Z,10.21
2018-04-14T06:17:10.596Z,10.26
2018-04-14T06:18:12.330Z,10.26
2018-04-14T06:19:10.834Z,10.23
2018-04-14T06:20:10.514Z,10.23
2018-04-14T06:21:10.548Z,10.27
2018-04-14T06:22:10.587Z,10.21
2018-04-14T06:23:10.466Z,10.17
2018-04-14T06:25:10.445Z,10.20
2018-04-14T06:26:10.724Z,10.28
2018-04-14T06:27:10.391Z,10.30
2018-04-14T06:28:10.457Z,10.20
2018-04-14T06:29:10.376Z,10.18
2018-04-14T06:30:10.344Z,10.20
2018-04-14T06:31:10.326Z,10.23
2018-04-14T06:32:10.372Z,10.18
2018-04-14T06:33:10.615Z,10.21
2018-04-14T06:34:10.424Z,10.18
2018-04-14T06:35:10.263Z,10.17
2018-04-14T06:36:10.242Z,10.16
2018-04-14T06:37:10.225Z,10.21
2018-04-14T06:38:10.206Z,10.09
2018-04-14T06:39:10.186Z,10.14
2018-04-14T06:40:10.568Z,10.17
2018-04-14T06:41:10.210Z,10.16
2018-04-14T06:42:10.149Z,10.17
2018-04-14T06:43:10.116Z,10.17
2018-04-14T06:44:10.168Z,10.21
2018-04-14T06:45:10.146Z,10.20
2018-04-14T06:46:10.177Z,10.18
2018-04-14T06:47:10.349Z,10.16
2018-04-14T06:48:10.035Z,10.18
2018-04-14T06:50:10.203Z,10.17
2018-04-14T06:51:10.209Z,10.17
2018-04-14T06:52:10.051Z,10.12
2018-04-14T06:53:10.308Z,10.16
2018-04-14T06:54:09.929Z,10.17
2018-04-14T06:55:09.913Z,10.14
2018-04-14T06:56:09.944Z,10.12
2018-04-14T06:57:09.893Z,10.18
2018-04-14T06:58:09.934Z,10.16
2018-04-14T06:59:10.141Z,10.17
2018-04-14T07:00:09.875Z,10.24
2018-04-14T07:01:09.810Z,10.21
2018-04-14T07:02:09.792Z,10.21
2018-04-14T07:03:09.829Z,10.17
2018-04-14T07:04:09.837Z,10.18
2018-04-14T07:05:10.051Z,10.21
2018-04-14T07:06:09.742Z,10.12
2018-04-14T07:07:09.714Z,10.20
2018-04-14T07:08:09.689Z,10.21
2018-04-14T07:09:09.683Z,10.17
2018-04-14T07:10:09.705Z,10.17
2018-04-14T07:11:09.961Z,10.17
2018-04-14T07:12:09.722Z,10.18
2018-04-14T07:13:09.605Z,10.09
2018-04-14T07:14:09.590Z,10.21
2018-04-14T07:15:09.615Z,10.20
2018-04-14T07:16:09.607Z,10.18
2018-04-14T07:17:10.939Z,10.08
2018-04-14T07:18:09.520Z,10.08
2018-04-14T07:19:09.509Z,10.05
2018-04-14T07:20:09.488Z,10.12
2018-04-14T07:21:09.471Z,10.18
2018-04-14T07:22:09.836Z,10.09
2018-04-14T07:23:09.732Z,10.12
2018-04-14T07:24:09.437Z,10.17
2018-04-14T07:25:09.396Z,10.18
2018-04-14T07:26:09.587Z,10.20
2018-04-14T07:27:09.363Z,10.16
2018-04-14T07:29:09.781Z,10.17
2018-04-14T07:30:09.316Z,10.21
2018-04-14T07:31:09.328Z,10.08
2018-04-14T07:32:09.276Z,10.10
2018-04-14T07:33:09.255Z,10.10
2018-04-14T07:34:09.644Z,10.12
2018-04-14T07:35:09.458Z,10.20
2018-04-14T07:36:09.501Z,10.17
2018-04-14T07:37:09.191Z,10.12
2018-04-14T07:38:09.163Z,10.08
2018-04-14T07:39:09.147Z,10.17
2018-04-14T07:40:09.145Z,10.18
2018-04-14T07:41:09.316Z,10.20
2018-04-14T07:42:09.115Z,10.17
2018-04-14T07:43:09.083Z,10.17
2018-04-14T07:44:09.070Z,10.28
2018-04-14T07:45:09.151Z,10.17
2018-04-14T07:46:09.152Z,10.18
2018-04-14T07:51:09.253Z,10.23
2018-04-14T07:52:08.988Z,10.20
2018-04-14T07:54:08.902Z,10.27
2018-04-14T07:55:08.929Z,10.17
2018-04-14T07:56:08.864Z,10.20
2018-04-14T07:57:09.149Z,10.20
2018-04-14T07:58:08.828Z,10.30
2018-04-14T08:00:08.801Z,10.30
2018-04-14T08:01:09.123Z,10.35
2018-04-14T08:02:08.759Z,10.35
2018-04-14T08:03:09.046Z,10.38
2018-04-14T08:04:08.782Z,10.23
2018-04-14T08:06:08.807Z,10.30
2018-04-14T08:08:08.708Z,10.48
2018-04-14T08:09:08.695Z,10.46
2018-04-14T08:10:08.925Z,10.41
2018-04-14T08:11:08.609Z,10.45
2018-04-14T08:12:08.643Z,10.41
2018-04-14T08:13:08.581Z,10.52
2018-04-14T08:14:08.561Z,10.46
2018-04-14T08:15:08.590Z,10.52
2018-04-14T08:16:08.633Z,10.55
2018-04-14T08:17:08.821Z,10.48
2018-04-14T08:18:08.545Z,10.52
2018-04-14T08:20:08.466Z,10.54
2018-04-14T08:21:08.458Z,10.60
2018-04-14T08:23:09.809Z,10.58
2018-04-14T08:24:08.849Z,10.68
2018-04-14T08:28:08.667Z,10.70
2018-04-14T08:29:08.655Z,10.65
2018-04-14T08:30:09.066Z,10.62
2018-04-14T08:31:08.327Z,10.60
2018-04-14T08:32:08.666Z,10.61
2018-04-14T08:33:08.382Z,10.52
2018-04-14T08:34:08.349Z,10.55
2018-04-14T08:35:08.433Z,10.55
2018-04-14T08:36:08.681Z,10.57
2018-04-14T08:37:08.294Z,10.58
2018-04-14T08:38:08.238Z,10.49
2018-04-14T08:39:08.288Z,10.48
2018-04-14T08:40:08.332Z,10.57
2018-04-14T08:41:08.233Z,10.61
2018-04-14T08:42:09.250Z,10.61
2018-04-14T08:43:08.324Z,10.52
2018-04-14T08:44:08.693Z,10.64
2018-04-14T08:45:08.166Z,10.70
2018-04-14T08:46:08.150Z,10.73
2018-04-14T08:47:08.120Z,10.67
2018-04-14T08:48:08.363Z,10.65
2018-04-14T08:49:08.119Z,10.54
2018-04-14T08:50:09.021Z,10.52
2018-04-14T08:51:08.330Z,10.55
2018-04-14T08:52:08.780Z,10.64
2018-04-14T08:53:08.135Z,10.48
2018-04-14T08:55:08.256Z,10.48
2018-04-14T08:56:08.189Z,10.52
2018-04-14T08:57:07.959Z,10.46
2018-04-14T08:59:08.559Z,10.52
2018-04-14T09:00:08.304Z,10.52
2018-04-14T09:01:08.091Z,10.38
2018-04-14T09:02:07.765Z,10.48
2018-04-14T09:03:07.823Z,10.43
2018-04-14T09:04:07.864Z,10.43
2018-04-14T09:05:07.825Z,10.46
2018-04-14T09:06:07.702Z,10.42
2018-04-14T09:07:07.690Z,10.42
2018-04-14T09:08:08.184Z,10.31
2018-04-14T09:09:07.676Z,10.43
2018-04-14T09:10:07.683Z,10.43
2018-04-14T09:11:07.719Z,10.45
2018-04-14T09:13:07.685Z,10.48
2018-04-14T09:14:07.566Z,10.55
2018-04-14T09:19:08.163Z,10.55
2018-04-14T09:20:07.475Z,10.58
2018-04-14T09:22:07.546Z,10.52
2018-04-14T09:24:07.481Z,10.57
2018-04-14T09:25:07.701Z,10.58
2018-04-14T09:26:10.704Z,10.61
2018-04-14T09:27:07.448Z,10.60
2018-04-14T09:28:07.385Z,10.65
2018-04-14T09:29:09.432Z,10.52
2018-04-14T09:30:07.434Z,10.62
2018-04-14T09:31:07.674Z,10.62
2018-04-14T09:33:07.569Z,10.58
2018-04-14T09:35:07.381Z,10.67
2018-04-14T09:36:07.431Z,10.64
2018-04-14T09:37:07.431Z,10.70
2018-04-14T09:38:07.182Z,10.73
2018-04-14T09:39:07.442Z,10.80
2018-04-14T09:41:07.489Z,10.82
2018-04-14T09:42:07.115Z,10.72
2018-04-14T09:43:07.146Z,10.73
2018-04-14T09:44:07.089Z,10.73
2018-04-14T09:46:07.363Z,10.70
2018-04-14T09:47:07.092Z,10.72
2018-04-14T09:48:07.017Z,10.76
2018-04-14T09:49:07.006Z,10.73
2018-04-14T09:50:07.088Z,10.73
2018-04-14T09:51:07.034Z,10.78
2018-04-14T09:52:07.459Z,10.83
2018-04-14T09:53:07.654Z,10.73
2018-04-14T09:54:07.181Z,10.86
2018-04-14T09:55:07.235Z,10.76
2018-04-14T09:56:06.936Z,10.79
2018-04-14T09:57:07.005Z,10.70
2018-04-14T09:58:07.166Z,10.78
2018-04-14T09:59:07.161Z,10.85
2018-04-14T10:00:06.824Z,10.80
2018-04-14T10:01:07.243Z,10.76
2018-04-14T10:04:07.571Z,10.90
2018-04-14T10:05:06.807Z,10.87
2018-04-14T10:06:06.756Z,10.82
2018-04-14T10:07:06.711Z,10.83
2018-04-14T10:08:06.746Z,10.79
2018-04-14T10:09:06.686Z,10.85
2018-04-14T10:10:07.165Z,10.98
2018-04-14T10:11:06.693Z,10.98
2018-04-14T10:12:06.837Z,10.98
2018-04-14T10:13:06.622Z,10.95
2018-04-14T10:14:06.667Z,10.95
2018-04-14T10:15:06.578Z,10.87
2018-04-14T10:16:07.006Z,10.91
2018-04-14T10:17:06.542Z,10.78
2018-04-14T10:18:06.579Z,10.76
2018-04-14T10:19:06.519Z,10.73
2018-04-14T10:20:06.552Z,10.80
2018-04-14T10:21:06.532Z,10.73
2018-04-14T10:22:07.487Z,10.78
2018-04-14T10:23:06.453Z,10.78
2018-04-14T10:24:06.494Z,10.76
2018-04-14T10:25:06.474Z,10.76
2018-04-14T10:26:06.524Z,10.82
2018-04-14T10:27:06.446Z,10.73
2018-04-14T10:28:07.142Z,10.83
2018-04-14T10:30:06.660Z,10.80
2018-04-14T10:31:07.547Z,10.79
2018-04-14T10:32:06.922Z,10.72
2018-04-14T10:34:06.619Z,10.79
2018-04-14T10:35:06.259Z,10.76
2018-04-14T10:36:07.710Z,10.75
2018-04-14T10:37:06.230Z,10.85
2018-04-14T10:38:06.265Z,10.94
2018-04-14T10:39:06.242Z,10.90
2018-04-14T10:40:06.587Z,10.98
2018-04-14T10:41:06.206Z,11.09
2018-04-14T10:42:06.508Z,11.11
2018-04-14T10:43:06.141Z,11.16
2018-04-14T10:44:06.285Z,11.13
2018-04-14T10:45:06.146Z,11.18
2018-04-14T10:46:06.451Z,11.13
2018-04-14T10:47:06.071Z,11.20
2018-04-14T10:48:06.937Z,11.16
2018-04-14T10:49:06.034Z,11.19
2018-04-14T10:50:06.098Z,11.27
2018-04-14T10:51:06.053Z,11.13
2018-04-14T10:52:06.283Z,11.15
2018-04-14T10:53:06.083Z,11.16
2018-04-14T10:54:06.195Z,11.30
2018-04-14T10:55:06.066Z,11.28
2018-04-14T10:56:05.977Z,11.27
2018-04-14T10:57:05.949Z,11.11
2018-04-14T10:58:06.203Z,11.19
2018-04-14T10:59:05.918Z,11.16
2018-04-14T11:00:05.959Z,11.15
2018-04-14T11:01:05.867Z,11.19
2018-04-14T11:02:05.937Z,11.15
2018-04-14T11:03:06.020Z,11.09
2018-04-14T11:04:06.097Z,11.05
2018-04-14T11:05:05.803Z,11.16
2018-04-14T11:06:05.974Z,11.08
2018-04-14T11:07:05.757Z,11.05
2018-04-14T11:08:05.736Z,11.00
2018-04-14T11:09:05.720Z,11.00
2018-04-14T11:10:06.075Z,11.00
2018-04-14T11:11:05.740Z,11.03
2018-04-14T11:12:07.245Z,10.98
2018-04-14T11:13:06.159Z,10.94
2018-04-14T11:14:05.648Z,10.93
2018-04-14T11:15:05.686Z,10.95
2018-04-14T11:16:05.909Z,11.12
2018-04-14T11:17:05.797Z,11.05
2018-04-14T11:18:05.880Z,11.03
2018-04-14T11:19:05.567Z,11.03
2018-04-14T11:20:05.755Z,11.05
2018-04-14T11:21:05.534Z,11.04
2018-04-14T11:22:05.824Z,11.11
2018-04-14T11:23:05.652Z,11.04
2018-04-14T11:24:05.661Z,10.98
2018-04-14T11:25:05.486Z,11.05
2018-04-14T11:27:05.619Z,11.15
2018-04-14T11:28:05.770Z,11.13
2018-04-14T11:29:05.609Z,11.08
2018-04-14T11:30:05.458Z,11.15
2018-04-14T11:31:05.377Z,11.22
2018-04-14T11:32:05.358Z,11.19
2018-04-14T11:33:06.259Z,11.19
2018-04-14T11:34:05.625Z,11.12
2018-04-14T11:35:05.372Z,11.19
2018-04-14T11:36:05.294Z,11.13
2018-04-14T11:37:05.724Z,11.19
2018-04-14T11:38:05.321Z,11.13
2018-04-14T11:39:05.253Z,11.20
2018-04-14T11:40:05.537Z,11.11
2018-04-14T11:41:05.286Z,11.09
2018-04-14T11:42:05.485Z,11.05
2018-04-14T11:43:05.185Z,11.05
2018-04-14T11:44:05.172Z,11.05
2018-04-14T11:45:05.166Z,11.09
2018-04-14T11:46:05.439Z,11.05
2018-04-14T11:47:05.180Z,11.08
2018-04-14T11:48:05.105Z,11.08
2018-04-14T11:49:05.343Z,11.08
2018-04-14T11:50:05.082Z,11.04
2018-04-14T11:51:05.082Z,11.08
2018-04-14T11:52:05.343Z,11.16
2018-04-14T11:54:05.560Z,11.19
2018-04-14T11:55:05.002Z,11.25
2018-04-14T11:56:05.035Z,11.19
2018-04-14T11:58:05.321Z,11.22
2018-04-14T11:59:04.959Z,11.30
2018-04-14T12:00:05.271Z,11.22
2018-04-14T12:01:04.905Z,11.25
2018-04-14T12:02:04.904Z,11.16
2018-04-14T12:03:04.877Z,11.28
2018-04-14T12:04:05.161Z,11.38
2018-04-14T12:05:06.041Z,11.30
2018-04-14T12:06:06.582Z,11.31
2018-04-14T12:07:05.075Z,11.37
2018-04-14T12:08:05.031Z,11.52
2018-04-14T12:09:04.780Z,11.33
2018-04-14T12:10:05.255Z,11.33
2018-04-14T12:11:05.948Z,11.30
2018-04-14T12:12:04.802Z,11.36
2018-04-14T12:13:04.716Z,11.45
2018-04-14T12:14:04.905Z,11.33
2018-04-14T12:15:04.690Z,11.27
2018-04-14T12:16:04.685Z,11.33
2018-04-14T12:17:05.049Z,11.36
2018-04-14T12:18:04.692Z,11.37
2018-04-14T12:19:04.774Z,11.28
2018-04-14T12:20:04.825Z,11.45
2018-04-14T12:21:04.679Z,11.49
2018-04-14T12:22:04.587Z,11.56
2018-04-14T12:23:04.864Z,11.49
2018-04-14T12:24:04.554Z,11.51
2018-04-14T12:25:05.834Z,11.48
2018-04-14T12:26:04.524Z,11.59
2018-04-14T12:27:04.710Z,11.64
2018-04-14T12:28:04.490Z,11.61
2018-04-14T12:29:04.777Z,11.71
2018-04-14T12:30:04.466Z,11.76
2018-04-14T12:31:04.498Z,11.88
2018-04-14T12:32:04.433Z,11.74
2018-04-14T12:33:04.416Z,11.69
2018-04-14T12:34:04.399Z,11.89
2018-04-14T12:35:04.590Z,11.97
2018-04-14T12:36:04.666Z,11.91
2018-04-14T12:37:04.399Z,11.91
2018-04-14T12:38:04.337Z,11.88
2018-04-14T12:39:04.373Z,11.77
2018-04-14T12:40:04.305Z,11.99
2018-04-14T12:41:04.312Z,12.10
2018-04-14T12:42:04.272Z,12.10
2018-04-14T12:43:04.613Z,12.46
2018-04-14T12:44:04.253Z,12.32
2018-04-14T12:45:04.227Z,12.47
2018-04-14T12:46:04.273Z,12.30
2018-04-14T12:47:04.410Z,12.11
2018-04-14T12:48:04.192Z,12.05
2018-04-14T12:49:04.283Z,12.05
2018-04-14T12:50:04.471Z,12.03
2018-04-14T12:51:04.192Z,12.30
2018-04-14T12:53:04.228Z,12.62
2018-04-14T12:54:04.111Z,12.50
2018-04-14T12:55:04.148Z,12.48
2018-04-14T12:56:04.438Z,12.51
2018-04-14T12:57:04.277Z,12.47
2018-04-14T12:58:04.056Z,12.55
2018-04-14T12:59:04.100Z,12.47
2018-04-14T13:00:04.101Z,12.46
2018-04-14T13:01:04.327Z,12.33
2018-04-14T13:02:04.352Z,12.28
2018-04-14T13:03:05.203Z,12.30
2018-04-14T13:04:03.974Z,12.35
2018-04-14T13:05:03.969Z,12.33
2018-04-14T13:06:03.950Z,12.25
2018-04-14T13:07:03.942Z,12.26
2018-04-14T13:08:04.281Z,12.35
2018-04-14T13:09:03.920Z,12.33
2018-04-14T13:10:03.902Z,12.33
2018-04-14T13:11:04.076Z,12.23
2018-04-14T13:12:04.073Z,12.11
2018-04-14T13:13:03.866Z,12.08
2018-04-14T13:14:04.381Z,12.08
2018-04-14T13:15:03.884Z,12.07
2018-04-14T13:17:03.861Z,12.07
2018-04-14T13:18:03.793Z,11.93
2018-04-14T13:19:03.801Z,11.99
2018-04-14T13:20:04.607Z,11.91
2018-04-14T13:21:03.749Z,11.93
2018-04-14T13:22:03.753Z,11.85
2018-04-14T13:23:03.771Z,11.87
2018-04-14T13:24:03.709Z,11.99
2018-04-14T13:25:03.753Z,11.99
2018-04-14T13:26:04.420Z,11.95
2018-04-14T13:27:04.222Z,11.88
2018-04-14T13:28:03.656Z,11.85
2018-04-14T13:29:04.502Z,11.76
2018-04-14T13:30:04.027Z,11.74
2018-04-14T13:32:03.930Z,11.74
2018-04-14T13:33:03.587Z,11.64
2018-04-14T13:34:03.564Z,11.74
2018-04-14T13:35:03.552Z,11.70
2018-04-14T13:36:03.597Z,11.73
2018-04-14T13:37:03.566Z,11.69
2018-04-14T13:38:03.822Z,11.73
2018-04-14T13:39:03.666Z,11.56
2018-04-14T13:40:03.499Z,11.82
2018-04-14T13:41:03.477Z,11.69
2018-04-14T13:43:03.845Z,11.79
2018-04-14T13:44:03.937Z,11.85
2018-04-14T13:45:03.470Z,11.96
2018-04-14T13:47:03.471Z,11.91
2018-04-14T13:48:03.370Z,11.76
2018-04-14T13:49:03.720Z,11.85
2018-04-14T13:50:03.708Z,11.85
2018-04-14T13:51:03.360Z,11.71
2018-04-14T13:52:03.318Z,11.80
2018-04-14T13:53:03.307Z,11.76
2018-04-14T13:55:03.343Z,11.76
2018-04-14T13:56:03.552Z,11.76
2018-04-14T13:57:03.240Z,11.69
2018-04-14T13:58:03.234Z,11.69
2018-04-14T13:59:03.223Z,11.70
2018-04-14T14:00:03.428Z,11.71
2018-04-14T14:01:03.185Z,11.61
2018-04-14T14:02:03.525Z,11.71